Time;durP1;ratioP1;P1;durP2;ratioP2;P2;SDS_P1;SDS_P2;PMS_P1;PMS_P2;Temp;Humidity;BMP_temperature;BMP_pressure;BME280_temperature;BME280_humidity;BME280_pressure;Samples;Min_cycle;Max_cycle;Signal;HPM_P1;HPM_P2
2023/11/30 00:00:28;;;;;;;;;;;;;;;20.24;41.50;99762.41;2068602;28;6258;-67
2023/11/30 00:01:30;;;;;;;;;;;;;;;20.24;41.47;99759.53;2069395;28;2044;-67
2023/11/30 00:02:32;;;;;;;;;;;;;;;20.24;41.53;99759.53;2069985;28;2061;-66
2023/11/30 00:03:33;;;;;;;;;;;;;;;20.24;41.51;99765.28;2069886;28;2068;-67
2023/11/30 00:04:35;;;;;;;;;;;;;;;20.24;41.58;99759.53;2069795;28;2086;-67
2023/11/30 00:05:36;;;;;;;;;;;;;;;20.22;41.67;99757.31;2069519;28;2077;-67
2023/11/30 00:06:38;;;;;;;;;;;;;;;20.23;41.42;99764.53;2067515;28;2008;-67
2023/11/30 00:07:40;;;;;;;;;;;;;;;20.22;41.48;99763.06;2069438;28;2113;-67
2023/11/30 00:08:41;;;;;;;;;;;;;;;20.23;41.55;99763.81;2069239;28;2049;-67
2023/11/30 00:09:42;;;;;;;;;;;;;;;20.22;41.59;99762.34;2069140;28;2387;-67
2023/11/30 00:10:44;;;;;;;;;;;;;;;20.21;41.56;99766.63;2069206;28;2133;-67
2023/11/30 00:11:45;;;;;;;;;;;;;;;20.22;41.71;99763.06;2069051;28;2036;-67
2023/11/30 00:12:47;;;;;;;;;;;;;;;20.22;41.56;99765.22;2070116;28;2288;-67
2023/11/30 00:13:48;;;;;;;;;;;;;;;20.22;41.60;99770.97;2069727;28;2215;-67
2023/11/30 00:14:50;;;;;;;;;;;;;;;20.20;41.62;99765.91;2070445;28;2082;-67
2023/11/30 00:15:51;;;;;;;;;;;;;;;20.21;41.46;99769.50;2067750;28;2026;-67
2023/11/30 00:16:52;;;;;;;;;;;;;;;20.21;41.54;99773.09;2069787;28;2033;-67
2023/11/30 00:17:54;;;;;;;;;;;;;;;20.22;41.68;99779.59;2070529;28;2037;-67
2023/11/30 00:18:55;;;;;;;;;;;;;;;20.21;41.67;99778.84;2070518;28;2147;-67
2023/11/30 00:19:57;;;;;;;;;;;;;;;20.22;41.68;99779.59;2071095;28;2011;-67
2023/11/30 00:20:58;;;;;;;;;;;;;;;20.22;41.69;99779.59;2069372;28;2037;-67
2023/11/30 00:22:00;;;;;;;;;;;;;;;20.21;41.51;99781.72;2070124;28;2068;-67
2023/11/30 00:23:01;;;;;;;;;;;;;;;20.22;41.65;99783.19;2068486;28;2037;-67
2023/11/30 00:24:03;;;;;;;;;;;;;;;20.23;41.70;99783.94;2065926;28;2038;-69
2023/11/30 00:25:05;;;;;;;;;;;;;;;20.23;41.65;99781.06;2068944;28;1977;-67
2023/11/30 00:26:06;;;;;;;;;;;;;;;20.22;41.67;99782.47;2070752;28;2367;-64
2023/11/30 00:27:07;;;;;;;;;;;;;;;20.22;41.60;99780.31;2069698;28;2247;-67
2023/11/30 00:28:09;;;;;;;;;;;;;;;20.23;41.62;99775.31;2069351;28;2120;-70
2023/11/30 00:29:10;;;;;;;;;;;;;;;20.23;41.62;99772.44;2067533;28;2189;-69
2023/11/30 00:30:12;;;;;;;;;;;;;;;20.24;41.70;99776.78;2067077;28;6185;-69
2023/11/30 00:31:13;;;;;;;;;;;;;;;20.23;41.55;99772.44;2069551;28;2033;-69
2023/11/30 00:32:15;;;;;;;;;;;;;;;20.23;41.63;99776.03;2069507;28;2185;-70
2023/11/30 00:33:16;;;;;;;;;;;;;;;20.24;41.65;99782.53;2070299;28;2180;-70
2023/11/30 00:34:17;;;;;;;;;;;;;;;20.24;41.68;99779.66;2069501;28;2130;-70
2023/11/30 00:35:19;;;;;;;;;;;;;;;20.23;41.73;99775.31;2068809;28;1813;-70
2023/11/30 00:36:20;;;;;;;;;;;;;;;20.24;41.61;99782.53;2067002;28;1895;-70
2023/11/30 00:37:22;;;;;;;;;;;;;;;20.24;41.71;99774.63;2068559;28;2049;-70
2023/11/30 00:38:23;;;;;;;;;;;;;;;20.24;41.62;99776.78;2069424;28;1966;-70
2023/11/30 00:39:24;;;;;;;;;;;;;;;20.24;41.83;99782.53;2066255;28;2201;-70
2023/11/30 00:40:26;;;;;;;;;;;;;;;20.24;41.75;99791.16;2068509;28;2059;-70
2023/11/30 00:41:27;;;;;;;;;;;;;;;20.23;41.73;99778.19;2066296;28;1769;-70
2023/11/30 00:42:29;;;;;;;;;;;;;;;20.23;41.62;99783.94;2066968;28;2092;-70
2023/11/30 00:43:30;;;;;;;;;;;;;;;20.23;41.70;99786.81;2070473;28;2130;-70
2023/11/30 00:44:31;;;;;;;;;;;;;;;20.22;41.71;99780.31;2069559;28;2048;-70
2023/11/30 00:45:33;;;;;;;;;;;;;;;20.23;41.63;99786.81;2070640;28;2026;-70
2023/11/30 00:46:34;;;;;;;;;;;;;;;20.22;41.55;99785.34;2069484;28;2105;-70
2023/11/30 00:47:36;;;;;;;;;;;;;;;20.22;41.72;99785.34;2070718;28;1931;-70
2023/11/30 00:48:37;;;;;;;;;;;;;;;20.21;41.56;99778.84;2067838;28;2304;-69
2023/11/30 00:49:39;;;;;;;;;;;;;;;20.21;41.62;99781.00;2070574;28;2006;-70
2023/11/30 00:50:40;;;;;;;;;;;;;;;20.20;41.83;99779.50;2069161;28;2010;-69
2023/11/30 00:51:42;;;;;;;;;;;;;;;20.20;41.64;99783.16;2067101;28;1697;-70
2023/11/30 00:52:43;;;;;;;;;;;;;;;20.20;41.81;99782.38;2070279;28;2036;-69
2023/11/30 00:53:44;;;;;;;;;;;;;;;20.20;41.74;99777.41;2069214;28;2066;-70
2023/11/30 00:54:46;;;;;;;;;;;;;;;20.20;41.59;99791.00;2069071;28;2034;-70
2023/11/30 00:55:47;;;;;;;;;;;;;;;20.20;41.67;99791.00;2066755;28;1914;-70
2023/11/30 00:56:49;;;;;;;;;;;;;;;20.19;41.76;99787.41;2070305;28;2056;-69
2023/11/30 00:57:50;;;;;;;;;;;;;;;20.20;41.64;99791.00;2067937;28;2117;-70
2023/11/30 00:58:51;;;;;;;;;;;;;;;20.20;41.67;99788.13;2067193;28;1994;-70
2023/11/30 00:59:53;;;;;;;;;;;;;;;20.19;41.64;99786.69;2068781;28;1906;-70
2023/11/30 01:00:54;;;;;;;;;;;;;;;20.20;41.59;99793.88;2069481;28;6248;-69
2023/11/30 01:01:56;;;;;;;;;;;;;;;20.20;41.74;99785.25;2069126;28;2183;-71
2023/11/30 01:02:57;;;;;;;;;;;;;;;20.19;41.81;99786.69;2069941;28;2034;-70
2023/11/30 01:03:59;;;;;;;;;;;;;;;20.19;41.70;99789.56;2068138;28;2118;-70
2023/11/30 01:05:00;;;;;;;;;;;;;;;20.20;41.87;99788.13;2065477;28;2038;-69
2023/11/30 01:06:02;;;;;;;;;;;;;;;20.21;41.77;99790.34;2066271;28;1794;-71
2023/11/30 01:07:03;;;;;;;;;;;;;;;20.20;41.76;99793.88;2070237;28;1963;-70
2023/11/30 01:08:04;;;;;;;;;;;;;;;20.21;41.73;99812.63;2066074;28;2112;-70
2023/11/30 01:09:06;;;;;;;;;;;;;;;20.21;41.67;99801.13;2065947;28;2280;-70
2023/11/30 01:10:08;;;;;;;;;;;;;;;20.21;41.85;99801.84;2069586;28;1986;-71
2023/11/30 01:11:10;;;;;;;;;;;;;;;20.22;41.69;99802.56;2069352;28;2037;-70
2023/11/30 01:12:11;;;;;;;;;;;;;;;20.22;41.63;99802.56;2065668;28;2006;-71
2023/11/30 01:13:13;;;;;;;;;;;;;;;20.22;41.74;99802.56;2070971;28;1986;-70
2023/11/30 01:14:14;;;;;;;;;;;;;;;20.22;41.75;99802.56;2070389;28;2053;-70
2023/11/30 01:15:15;;;;;;;;;;;;;;;20.22;41.82;99805.44;2067972;28;2005;-70
2023/11/30 01:16:17;;;;;;;;;;;;;;;20.22;41.80;99811.19;2069542;28;2010;-70
2023/11/30 01:17:18;;;;;;;;;;;;;;;20.22;41.68;99808.31;2067243;28;2013;-70
2023/11/30 01:18:20;;;;;;;;;;;;;;;20.23;41.55;99809.81;2069424;28;2017;-70
2023/11/30 01:19:21;;;;;;;;;;;;;;;20.22;41.75;99814.06;2069475;28;2093;-71
2023/11/30 01:20:23;;;;;;;;;;;;;;;20.21;41.61;99813.34;2067437;28;2038;-70
2023/11/30 01:21:24;;;;;;;;;;;;;;;20.20;41.73;99816.88;2066647;28;2014;-70
2023/11/30 01:22:25;;;;;;;;;;;;;;;20.22;41.69;99808.31;2069990;28;2378;-70
2023/11/30 01:23:27;;;;;;;;;;;;;;;20.22;41.70;99816.94;2067257;28;2093;-70
2023/11/30 01:24:28;;;;;;;;;;;;;;;20.22;41.70;99819.81;2068388;28;2006;-70
2023/11/30 01:25:30;;;;;;;;;;;;;;;20.22;41.84;99820.56;2067157;28;2052;-70
2023/11/30 01:26:31;;;;;;;;;;;;;;;20.21;41.73;99819.09;2069879;28;2049;-70
2023/11/30 01:27:33;;;;;;;;;;;;;;;20.21;41.77;99829.88;2068637;28;2061;-70
2023/11/30 01:28:34;;;;;;;;;;;;;;;20.21;41.75;99824.13;2069087;28;2037;-70
2023/11/30 01:29:35;;;;;;;;;;;;;;;20.19;41.79;99818.31;2067303;28;2098;-69
2023/11/30 01:30:37;;;;;;;;;;;;;;;20.20;41.81;99825.50;2069431;28;6220;-70
2023/11/30 01:31:38;;;;;;;;;;;;;;;20.20;41.72;99829.13;2068445;28;1986;-70
2023/11/30 01:32:40;;;;;;;;;;;;;;;20.20;41.67;99823.38;2067933;28;2173;-70
2023/11/30 01:33:41;;;;;;;;;;;;;;;20.19;41.65;99826.94;2068305;28;1966;-70
2023/11/30 01:34:43;;;;;;;;;;;;;;;20.19;41.60;99832.66;2068621;28;2077;-69
2023/11/30 01:35:44;;;;;;;;;;;;;;;20.19;41.85;99827.66;2069413;28;2347;-70
2023/11/30 01:36:45;;;;;;;;;;;;;;;20.19;41.66;99826.94;2068745;28;1799;-70
2023/11/30 01:37:47;;;;;;;;;;;;;;;20.18;41.80;99829.06;2067126;28;1970;-70
2023/11/30 01:38:48;;;;;;;;;;;;;;;20.19;41.80;99832.66;2067019;28;2009;-70
2023/11/30 01:39:50;;;;;;;;;;;;;;;20.18;41.70;99825.44;2069822;28;2129;-70
2023/11/30 01:40:51;;;;;;;;;;;;;;;20.19;41.62;99826.94;2069110;28;2010;-70
2023/11/30 01:41:53;;;;;;;;;;;;;;;20.18;41.68;99823.31;2067392;28;1884;-70
2023/11/30 01:42:54;;;;;;;;;;;;;;;20.17;41.83;99823.97;2069292;28;2095;-70
2023/11/30 01:43:56;;;;;;;;;;;;;;;20.18;41.78;99828.31;2068626;28;2069;-70
2023/11/30 01:44:57;;;;;;;;;;;;;;;20.18;41.82;99831.19;2067587;28;2284;-69
2023/11/30 01:45:58;;;;;;;;;;;;;;;20.18;41.70;99834.06;2069490;28;1963;-70
2023/11/30 01:47:04;;;;;;;;;;;;;;;20.18;41.81;99831.19;2068255;28;2113;-70
2023/11/30 01:48:06;;;;;;;;;;;;;;;20.18;41.75;99825.44;2068806;28;2003;-70
2023/11/30 01:49:07;;;;;;;;;;;;;;;20.19;41.83;99832.66;2068959;28;1978;-70
2023/11/30 01:50:09;;;;;;;;;;;;;;;20.19;41.80;99826.94;2068382;28;2059;-71
2023/11/30 01:51:10;;;;;;;;;;;;;;;20.19;41.75;99829.78;2067337;28;2105;-70
2023/11/30 01:52:12;;;;;;;;;;;;;;;20.19;41.78;99833.41;2069349;28;2013;-70
2023/11/30 01:53:13;;;;;;;;;;;;;;;20.19;41.69;99833.41;2067747;28;2081;-71
2023/11/30 01:54:15;;;;;;;;;;;;;;;20.20;41.74;99839.88;2068715;28;2022;-70
2023/11/30 01:55:16;;;;;;;;;;;;;;;20.19;41.86;99832.66;2069102;28;2014;-70
2023/11/30 01:56:18;;;;;;;;;;;;;;;20.19;41.73;99826.94;2067772;28;2021;-70
2023/11/30 01:57:19;;;;;;;;;;;;;;;20.19;41.80;99832.66;2068728;28;2015;-70
2023/11/30 01:58:21;;;;;;;;;;;;;;;20.20;41.76;99831.25;2069806;28;2220;-70
2023/11/30 01:59:22;;;;;;;;;;;;;;;20.20;41.79;99825.50;2065874;28;2086;-70
2023/11/30 02:00:24;;;;;;;;;;;;;;;20.19;41.76;99826.94;2068216;28;6212;-70
2023/11/30 02:01:26;;;;;;;;;;;;;;;20.20;41.72;99825.50;2069193;28;2030;-70
2023/11/30 02:02:28;;;;;;;;;;;;;;;20.19;41.84;99821.91;2070157;28;2045;-70
2023/11/30 02:03:29;;;;;;;;;;;;;;;20.19;41.75;99827.66;2067968;28;2089;-69
2023/11/30 02:04:30;;;;;;;;;;;;;;;20.20;41.75;99829.13;2068859;28;2033;-70
2023/11/30 02:05:32;;;;;;;;;;;;;;;20.20;41.81;99831.25;2069384;28;2057;-70
2023/11/30 02:06:33;;;;;;;;;;;;;;;20.19;41.75;99827.66;2074280;28;2037;-70
2023/11/30 02:07:35;;;;;;;;;;;;;;;20.19;41.71;99827.66;2069591;28;1974;-70
2023/11/30 02:08:36;;;;;;;;;;;;;;;20.19;41.77;99824.78;2067839;28;2005;-69
2023/11/30 02:09:38;;;;;;;;;;;;;;;20.18;41.83;99825.44;2068286;28;1990;-70
2023/11/30 02:10:39;;;;;;;;;;;;;;;20.18;41.79;99828.31;2070208;28;2029;-70
2023/11/30 02:11:40;;;;;;;;;;;;;;;20.18;41.73;99819.69;2068010;28;2054;-70
2023/11/30 02:12:42;;;;;;;;;;;;;;;20.18;41.78;99825.44;2070521;28;2037;-70
2023/11/30 02:13:43;;;;;;;;;;;;;;;20.18;41.70;99820.44;2070709;28;2093;-70
2023/11/30 02:14:44;;;;;;;;;;;;;;;20.18;41.89;99825.44;2070002;28;2149;-70
2023/11/30 02:15:46;;;;;;;;;;;;;;;20.18;41.93;99820.44;2070727;28;2076;-69
2023/11/30 02:16:47;;;;;;;;;;;;;;;20.16;41.79;99814.63;2068645;28;2093;-69
2023/11/30 02:17:49;;;;;;;;;;;;;;;20.16;41.78;99816.75;2070681;28;2254;-70
2023/11/30 02:18:50;;;;;;;;;;;;;;;20.17;41.83;99821.09;2070555;28;2220;-69
2023/11/30 02:19:52;;;;;;;;;;;;;;;20.15;41.80;99823.91;2070006;28;2210;-70
2023/11/30 02:20:53;;;;;;;;;;;;;;;20.15;41.81;99815.28;2069287;28;2086;-69
2023/11/30 02:21:55;;;;;;;;;;;;;;;20.15;41.89;99821.78;2069981;28;2018;-69
2023/11/30 02:22:56;;;;;;;;;;;;;;;20.16;41.86;99816.75;2069179;28;2149;-70
2023/11/30 02:23:57;;;;;;;;;;;;;;;20.15;41.90;99816.03;2069562;28;2124;-69
2023/11/30 02:24:59;;;;;;;;;;;;;;;20.16;41.75;99822.50;2071041;28;1978;-69
2023/11/30 02:26:01;;;;;;;;;;;;;;;20.16;41.95;99822.50;2070552;28;2046;-69
2023/11/30 02:27:02;;;;;;;;;;;;;;;20.16;41.80;99817.50;2069278;28;2077;-69
2023/11/30 02:28:04;;;;;;;;;;;;;;;20.16;41.73;99816.75;2069768;28;2022;-69
2023/11/30 02:29:06;;;;;;;;;;;;;;;20.17;41.76;99823.97;2069205;28;2010;-69
2023/11/30 02:30:08;;;;;;;;;;;;;;;20.15;41.93;99815.28;2069380;28;6031;-69
2023/11/30 02:31:09;;;;;;;;;;;;;;;20.16;41.78;99823.25;2066808;28;2204;-70
2023/11/30 02:32:10;;;;;;;;;;;;;;;20.16;41.74;99828.25;2069997;28;2077;-70
2023/11/30 02:33:12;;;;;;;;;;;;;;;20.16;41.91;99828.25;2069434;28;2166;-70
2023/11/30 02:34:14;;;;;;;;;;;;;;;20.17;41.92;99818.25;2069938;28;1998;-69
2023/11/30 02:35:15;;;;;;;;;;;;;;;20.17;41.84;99823.97;2070576;28;2112;-70
2023/11/30 02:36:17;;;;;;;;;;;;;;;20.17;41.36;99823.97;2070727;28;2045;-70
2023/11/30 02:37:18;;;;;;;;;;;;;;;20.18;41.68;99825.44;2070256;28;2160;-70
2023/11/30 02:38:20;;;;;;;;;;;;;;;20.18;41.95;99831.19;2069888;28;2117;-69
2023/11/30 02:39:21;;;;;;;;;;;;;;;20.17;41.69;99823.97;2070682;28;2096;-70
2023/11/30 02:40:22;;;;;;;;;;;;;;;20.18;41.95;99825.44;2077794;28;2191;-70
2023/11/30 02:41:24;;;;;;;;;;;;;;;20.18;41.77;99825.44;2070721;28;2049;-70
2023/11/30 02:42:25;;;;;;;;;;;;;;;20.17;41.69;99821.09;2070125;28;1975;-70
2023/11/30 02:43:29;;;;;;;;;;;;;;;20.18;41.73;99825.44;2071388;28;2006;-70
2023/11/30 02:44:31;;;;;;;;;;;;;;;20.18;42.03;99825.44;2070417;28;2132;-70
2023/11/30 02:45:32;;;;;;;;;;;;;;;20.18;41.71;99828.31;2069193;28;2148;-70
2023/11/30 02:46:33;;;;;;;;;;;;;;;20.18;41.84;99823.31;2071305;28;2315;-70
2023/11/30 02:47:35;;;;;;;;;;;;;;;20.18;41.78;99819.69;2069797;28;2272;-70
2023/11/30 02:48:37;;;;;;;;;;;;;;;20.16;41.85;99829.00;2068647;28;2324;-69
2023/11/30 02:49:38;;;;;;;;;;;;;;;20.16;41.91;99829.00;2069647;28;2005;-70
2023/11/30 02:50:40;;;;;;;;;;;;;;;20.16;41.80;99831.13;2070151;28;2026;-70
2023/11/30 02:51:41;;;;;;;;;;;;;;;20.17;41.95;99835.47;2078426;28;2108;-70
2023/11/30 02:52:43;;;;;;;;;;;;;;;20.16;41.82;99834.00;2078008;28;2004;-70
2023/11/30 02:53:44;;;;;;;;;;;;;;;20.16;41.82;99834.75;2069852;28;2074;-70
2023/11/30 02:54:45;;;;;;;;;;;;;;;20.16;41.76;99831.13;2069688;28;2022;-70
2023/11/30 02:55:47;;;;;;;;;;;;;;;20.16;41.85;99831.13;2069853;28;2194;-70
2023/11/30 02:56:48;;;;;;;;;;;;;;;20.16;41.80;99837.63;2070693;28;1986;-70
2023/11/30 02:57:50;;;;;;;;;;;;;;;20.15;41.98;99833.28;2068803;28;2108;-70
2023/11/30 02:58:51;;;;;;;;;;;;;;;20.15;41.92;99833.28;2068770;28;2050;-70
2023/11/30 02:59:52;;;;;;;;;;;;;;;20.15;41.75;99835.41;2068363;28;2084;-69
2023/11/30 03:00:54;;;;;;;;;;;;;;;20.13;41.96;99829.59;2070266;28;6085;-70
2023/11/30 03:01:55;;;;;;;;;;;;;;;20.14;41.76;99828.22;2069403;28;2276;-70
2023/11/30 03:02:57;;;;;;;;;;;;;;;20.13;41.97;99830.31;2069784;28;2109;-70
2023/11/30 03:03:58;;;;;;;;;;;;;;;20.14;41.88;99831.09;2069836;28;2100;-70
2023/11/30 03:05:00;;;;;;;;;;;;;;;20.13;41.86;99830.31;2071187;28;2068;-70
2023/11/30 03:06:01;;;;;;;;;;;;;;;20.13;41.82;99824.59;2068089;28;2081;-70
2023/11/30 03:07:03;;;;;;;;;;;;;;;20.13;41.78;99823.84;2071642;28;2477;-70
2023/11/30 03:08:04;;;;;;;;;;;;;;;20.14;41.87;99819.59;2066123;28;2061;-69
2023/11/30 03:09:05;;;;;;;;;;;;;;;20.14;41.83;99819.59;2071355;28;2048;-70
2023/11/30 03:10:07;;;;;;;;;;;;;;;20.15;41.82;99818.16;2067547;28;2001;-70
2023/11/30 03:11:08;;;;;;;;;;;;;;;20.15;41.75;99812.44;2066941;28;2043;-69
2023/11/30 03:12:10;;;;;;;;;;;;;;;20.15;41.93;99816.03;2069471;28;2041;-69
2023/11/30 03:13:11;;;;;;;;;;;;;;;20.15;41.76;99821.03;2069262;28;2109;-69
2023/11/30 03:14:13;;;;;;;;;;;;;;;20.13;41.90;99810.22;2070585;28;2041;-69
2023/11/30 03:15:18;;;;;;;;;;;;;;;20.14;41.81;99820.31;2069503;28;2200;-69
2023/11/30 03:16:26;;;;;;;;;;;;;;;20.15;41.92;99821.03;2066221;28;2081;-70
2023/11/30 03:17:27;;;;;;;;;;;;;;;20.15;41.91;99815.28;2066455;28;2041;-69
2023/11/30 03:18:29;;;;;;;;;;;;;;;20.15;42.08;99816.03;2068885;28;2090;-69
2023/11/30 03:19:30;;;;;;;;;;;;;;;20.16;42.05;99816.75;2068274;28;2009;-69
2023/11/30 03:20:35;;;;;;;;;;;;;;;20.15;41.88;99813.16;2068331;28;2089;-70
2023/11/30 03:21:37;;;;;;;;;;;;;;;20.15;41.76;99812.44;2069818;28;2115;-69
2023/11/30 03:22:38;;;;;;;;;;;;;;;20.15;41.83;99818.16;2070124;28;2069;-69
2023/11/30 03:23:39;;;;;;;;;;;;;;;20.15;42.04;99810.28;2070978;28;2033;-70
2023/11/30 03:24:41;;;;;;;;;;;;;;;20.16;41.85;99808.13;2068406;28;2053;-70
2023/11/30 03:25:42;;;;;;;;;;;;;;;20.15;41.80;99803.81;2066470;28;2152;-70
2023/11/30 03:26:44;;;;;;;;;;;;;;;20.15;41.97;99804.53;2070474;28;2096;-69
2023/11/30 03:27:45;;;;;;;;;;;;;;;20.15;41.84;99809.56;2071246;28;1999;-70
2023/11/30 03:28:47;;;;;;;;;;;;;;;20.14;42.04;99810.97;2067613;28;2046;-70
2023/11/30 03:29:48;;;;;;;;;;;;;;;20.15;41.89;99815.28;2068904;28;2375;-71
2023/11/30 03:30:49;;;;;;;;;;;;;;;20.11;41.98;99815.16;2068495;28;6065;-70
2023/11/30 03:31:51;;;;;;;;;;;;;;;20.00;42.27;99809.13;2066138;28;2069;-70
2023/11/30 03:32:52;;;;;;;;;;;;;;;19.93;41.98;99813.22;2069219;28;2057;-70
2023/11/30 03:33:54;;;;;;;;;;;;;;;19.94;41.56;99808.19;2069315;28;1994;-70
2023/11/30 03:34:55;;;;;;;;;;;;;;;19.97;41.59;99813.31;2069863;28;2038;-69
2023/11/30 03:35:57;;;;;;;;;;;;;;;19.99;41.47;99810.50;2070224;28;2196;-70
2023/11/30 03:36:58;;;;;;;;;;;;;;;20.00;41.92;99806.25;2070577;28;2157;-70
2023/11/30 03:38:00;;;;;;;;;;;;;;;20.02;41.80;99808.44;2068025;28;2209;-70
2023/11/30 03:39:01;;;;;;;;;;;;;;;20.04;41.62;99806.38;2069763;28;2151;-69
2023/11/30 03:40:03;;;;;;;;;;;;;;;20.06;41.66;99808.56;2067251;28;1967;-70
2023/11/30 03:41:04;;;;;;;;;;;;;;;20.06;41.47;99802.81;2068663;28;2033;-70
2023/11/30 03:42:06;;;;;;;;;;;;;;;20.06;41.35;99789.16;2068965;28;2018;-69
2023/11/30 03:43:08;;;;;;;;;;;;;;;20.08;41.26;99797.84;2067853;28;2074;-69
2023/11/30 03:44:09;;;;;;;;;;;;;;;20.08;41.21;99800.00;2070847;28;2089;-70
2023/11/30 03:45:11;;;;;;;;;;;;;;;20.09;41.25;99802.22;2068890;28;2061;-69
2023/11/30 03:46:12;;;;;;;;;;;;;;;20.11;41.41;99792.19;2069890;28;2009;-70
2023/11/30 03:47:14;;;;;;;;;;;;;;;20.10;41.36;99788.56;2071760;28;2081;-69
2023/11/30 03:48:15;;;;;;;;;;;;;;;20.11;41.25;99800.81;2069170;28;2093;-70
2023/11/30 03:49:17;;;;;;;;;;;;;;;20.12;41.27;99793.66;2071150;28;2049;-69
2023/11/30 03:50:18;;;;;;;;;;;;;;;20.13;41.41;99795.13;2070339;28;2038;-69
2023/11/30 03:51:20;;;;;;;;;;;;;;;20.13;41.40;99800.88;2067556;28;2038;-69
2023/11/30 03:52:21;;;;;;;;;;;;;;;20.13;41.37;99795.13;2069299;28;2227;-69
2023/11/30 03:53:23;;;;;;;;;;;;;;;20.13;41.55;99800.88;2068275;28;2080;-69
2023/11/30 03:54:24;;;;;;;;;;;;;;;20.14;41.46;99799.47;2070354;28;2045;-69
2023/11/30 03:55:25;;;;;;;;;;;;;;;20.13;41.68;99801.59;2068619;28;2113;-69
2023/11/30 03:56:30;;;;;;;;;;;;;;;20.15;41.68;99792.31;2070631;28;2164;-70
2023/11/30 03:57:31;;;;;;;;;;;;;;;20.15;41.64;99798.06;2069660;28;2145;-70
2023/11/30 03:58:32;;;;;;;;;;;;;;;20.14;41.58;99797.31;2071276;28;2034;-69
2023/11/30 03:59:34;;;;;;;;;;;;;;;20.16;41.58;99796.63;2070774;28;2033;-70
2023/11/30 04:00:35;;;;;;;;;;;;;;;20.15;41.73;99800.94;2069587;28;6157;-69
2023/11/30 04:01:37;;;;;;;;;;;;;;;20.15;41.69;99798.06;2070735;28;2138;-70
2023/11/30 04:02:39;;;;;;;;;;;;;;;20.17;41.69;99806.75;2069586;28;2077;-70
2023/11/30 04:03:40;;;;;;;;;;;;;;;20.16;41.56;99794.53;2070086;28;2069;-69
2023/11/30 04:04:42;;;;;;;;;;;;;;;20.16;41.70;99790.88;2069775;28;2164;-69
2023/11/30 04:05:43;;;;;;;;;;;;;;;20.16;41.57;99799.50;2071180;28;2057;-69
2023/11/30 04:06:45;;;;;;;;;;;;;;;20.17;41.59;99795.25;2068972;28;2224;-70
2023/11/30 04:07:46;;;;;;;;;;;;;;;20.15;41.62;99798.78;2070120;28;2045;-69
2023/11/30 04:08:48;;;;;;;;;;;;;;;20.16;41.75;99806.00;2069890;28;2178;-69
2023/11/30 04:09:49;;;;;;;;;;;;;;;20.18;41.72;99803.19;2069836;28;2237;-69
2023/11/30 04:10:50;;;;;;;;;;;;;;;20.17;41.69;99801.72;2069875;28;1823;-69
2023/11/30 04:11:52;;;;;;;;;;;;;;;20.18;41.59;99802.44;2069950;28;1970;-69
2023/11/30 04:12:54;;;;;;;;;;;;;;;20.19;41.73;99806.81;2069953;28;2175;-69
2023/11/30 04:14:02;;;;;;;;;;;;;;;20.18;41.70;99811.06;2069473;28;2108;-69
2023/11/30 04:15:05;;;;;;;;;;;;;;;20.18;41.69;99811.06;2068585;28;2029;-69
2023/11/30 04:16:06;;;;;;;;;;;;;;;20.18;41.73;99805.31;2069160;28;2010;-70
2023/11/30 04:17:08;;;;;;;;;;;;;;;20.20;41.82;99808.25;2066166;28;1971;-69
2023/11/30 04:18:09;;;;;;;;;;;;;;;20.20;41.65;99808.25;2068382;28;2121;-69
2023/11/30 04:19:11;;;;;;;;;;;;;;;20.20;41.65;99816.88;2069025;28;2070;-70
2023/11/30 04:20:13;;;;;;;;;;;;;;;20.21;41.71;99812.63;2069165;28;2148;-70
2023/11/30 04:21:14;;;;;;;;;;;;;;;20.20;41.55;99811.88;2075672;28;1996;-69
2023/11/30 04:22:16;;;;;;;;;;;;;;;20.20;41.60;99808.25;2076673;28;2152;-69
2023/11/30 04:23:17;;;;;;;;;;;;;;;20.21;41.69;99806.88;2069369;28;2112;-69
2023/11/30 04:24:19;;;;;;;;;;;;;;;20.21;41.51;99806.88;2069722;28;1963;-70
2023/11/30 04:25:20;;;;;;;;;;;;;;;20.20;41.66;99811.13;2069534;28;2156;-69
2023/11/30 04:26:21;;;;;;;;;;;;;;;20.21;41.69;99810.47;2069261;28;2049;-69
2023/11/30 04:27:23;;;;;;;;;;;;;;;20.22;41.89;99811.19;2069962;28;2029;-69
2023/11/30 04:28:24;;;;;;;;;;;;;;;20.20;41.65;99800.38;2069252;28;2053;-69
2023/11/30 04:29:26;;;;;;;;;;;;;;;20.21;41.82;99807.59;2067675;28;2039;-70
2023/11/30 04:30:27;;;;;;;;;;;;;;;20.21;41.70;99798.97;2068209;28;6127;-69
2023/11/30 04:31:29;;;;;;;;;;;;;;;20.22;41.71;99802.56;2069909;28;2093;-69
2023/11/30 04:32:30;;;;;;;;;;;;;;;20.23;41.74;99809.81;2068289;28;2085;-69
2023/11/30 04:33:32;;;;;;;;;;;;;;;20.22;41.80;99805.44;2069891;28;2092;-69
2023/11/30 04:34:34;;;;;;;;;;;;;;;20.23;41.92;99804.06;2068093;28;2100;-69
2023/11/30 04:35:35;;;;;;;;;;;;;;;20.23;41.69;99810.53;2069637;28;1989;-69
2023/11/30 04:36:36;;;;;;;;;;;;;;;20.23;41.76;99804.06;2068431;28;2179;-69
2023/11/30 04:37:38;;;;;;;;;;;;;;;20.23;41.74;99806.94;2070275;28;2034;-69
2023/11/30 04:38:39;;;;;;;;;;;;;;;20.23;41.70;99798.31;2070318;28;2023;-69
2023/11/30 04:39:41;;;;;;;;;;;;;;;20.24;41.70;99796.91;2070306;28;2025;-69
2023/11/30 04:40:42;;;;;;;;;;;;;;;20.24;41.98;99806.25;2070099;28;2009;-69
2023/11/30 04:41:43;;;;;;;;;;;;;;;20.25;41.79;99804.13;2068624;28;2034;-69
2023/11/30 04:42:45;;;;;;;;;;;;;;;20.24;41.84;99808.38;2069785;28;2022;-69
2023/11/30 04:43:46;;;;;;;;;;;;;;;20.24;41.70;99802.63;2068908;28;2168;-69
2023/11/30 04:44:48;;;;;;;;;;;;;;;20.23;41.70;99804.06;2070303;28;1994;-69
2023/11/30 04:45:49;;;;;;;;;;;;;;;20.23;41.88;99804.06;2067794;28;2010;-69
2023/11/30 04:46:51;;;;;;;;;;;;;;;20.23;41.76;99804.78;2067230;28;2038;-69
2023/11/30 04:47:52;;;;;;;;;;;;;;;20.23;41.67;99804.06;2068599;28;2058;-69
2023/11/30 04:48:54;;;;;;;;;;;;;;;20.22;41.93;99809.06;2071229;28;1951;-70
2023/11/30 04:49:55;;;;;;;;;;;;;;;20.23;41.67;99799.03;2070323;28;2085;-69
2023/11/30 04:50:57;;;;;;;;;;;;;;;20.23;41.71;99809.81;2069121;28;2061;-69
2023/11/30 04:51:58;;;;;;;;;;;;;;;20.23;41.88;99804.06;2068387;28;2160;-69
2023/11/30 04:53:00;;;;;;;;;;;;;;;20.22;41.71;99808.31;2069772;28;2137;-69
2023/11/30 04:54:01;;;;;;;;;;;;;;;20.22;41.93;99808.31;2069595;28;2386;-69
2023/11/30 04:55:03;;;;;;;;;;;;;;;20.21;41.83;99818.38;2069445;28;2398;-69
2023/11/30 04:56:04;;;;;;;;;;;;;;;20.21;41.87;99806.88;2070157;28;2041;-69
2023/11/30 04:57:06;;;;;;;;;;;;;;;20.21;41.77;99815.50;2070015;28;2202;-69
2023/11/30 04:58:07;;;;;;;;;;;;;;;20.20;41.81;99811.13;2068033;28;2302;-69
2023/11/30 04:59:09;;;;;;;;;;;;;;;20.20;41.65;99806.13;2067885;28;2160;-69
2023/11/30 05:00:10;;;;;;;;;;;;;;;20.19;41.74;99810.41;2067234;28;6082;-69
2023/11/30 05:01:12;;;;;;;;;;;;;;;20.20;41.88;99811.13;2069307;28;2415;-69
2023/11/30 05:02:13;;;;;;;;;;;;;;;20.16;41.83;99811.00;2069344;28;2143;-69
2023/11/30 05:03:16;;;;;;;;;;;;;;;20.19;41.84;99815.44;2071255;28;2052;-69
2023/11/30 05:04:17;;;;;;;;;;;;;;;20.18;41.93;99816.81;2069491;28;2175;-69
2023/11/30 05:05:19;;;;;;;;;;;;;;;20.19;41.97;99815.44;2068753;28;2025;-69
2023/11/30 05:06:20;;;;;;;;;;;;;;;20.20;41.89;99816.88;2065901;28;2092;-68
2023/11/30 05:07:22;;;;;;;;;;;;;;;20.18;41.82;99819.69;2070320;28;1963;-69
2023/11/30 05:08:23;;;;;;;;;;;;;;;20.19;41.84;99818.31;2069375;28;2081;-69
2023/11/30 05:09:25;;;;;;;;;;;;;;;20.19;41.81;99821.19;2069739;28;2093;-68
2023/11/30 05:10:26;;;;;;;;;;;;;;;20.20;41.82;99819.75;2068870;28;2082;-69
2023/11/30 05:11:28;;;;;;;;;;;;;;;20.19;41.81;99821.19;2070472;28;2197;-69
2023/11/30 05:12:29;;;;;;;;;;;;;;;20.20;41.84;99825.50;2070148;28;2014;-69
2023/11/30 05:13:30;;;;;;;;;;;;;;;20.20;41.72;99825.50;2070168;28;2049;-69
2023/11/30 05:14:32;;;;;;;;;;;;;;;20.19;41.89;99816.16;2070113;28;1876;-70
2023/11/30 05:15:37;;;;;;;;;;;;;;;20.20;41.80;99814.00;2070534;28;1997;-70
2023/11/30 05:16:39;;;;;;;;;;;;;;;20.20;41.70;99823.38;2068272;28;2053;-69
2023/11/30 05:17:40;;;;;;;;;;;;;;;20.21;41.77;99821.25;2068578;28;2077;-69
2023/11/30 05:18:42;;;;;;;;;;;;;;;20.21;41.77;99827.00;2067530;28;2343;-69
2023/11/30 05:19:43;;;;;;;;;;;;;;;20.20;41.84;99828.38;2068457;28;1962;-69
2023/11/30 05:20:44;;;;;;;;;;;;;;;20.20;42.00;99823.38;2069978;28;1970;-69
2023/11/30 05:21:46;;;;;;;;;;;;;;;20.21;41.98;99824.84;2070420;28;2261;-69
2023/11/30 05:22:47;;;;;;;;;;;;;;;20.21;41.85;99827.72;2068393;28;2498;-69
2023/11/30 05:23:51;;;;;;;;;;;;;;;20.20;41.90;99816.88;2067565;28;2105;-70
2023/11/30 05:24:52;;;;;;;;;;;;;;;20.21;41.80;99829.88;2069062;28;1907;-69